createdAt,value
2023-04-05T00:01:33.848Z,54.83
2023-04-05T00:03:35.436Z,54.91
2023-04-05T00:05:36.846Z,54.75
2023-04-05T00:07:38.493Z,55.26
2023-04-05T00:09:39.787Z,54.60
2023-04-05T00:11:41.087Z,54.90
2023-04-05T00:13:42.427Z,55.13
2023-04-05T00:15:43.743Z,55.33
2023-04-05T00:17:45.121Z,55.10
2023-04-05T00:19:51.613Z,55.26
2023-04-05T00:21:54.589Z,55.16
2023-04-05T00:23:57.189Z,54.71
2023-04-05T00:25:58.515Z,54.76
2023-04-05T00:27:59.912Z,54.65
2023-04-05T00:30:01.356Z,55.51
2023-04-05T00:32:02.875Z,55.68
2023-04-05T00:34:06.033Z,55.36
2023-04-05T00:36:07.415Z,55.44
2023-04-05T00:38:08.745Z,55.66
2023-04-05T00:40:10.614Z,56.23
2023-04-05T00:42:11.904Z,56.42
2023-04-05T00:44:13.209Z,56.35
2023-04-05T00:46:14.582Z,57.35
2023-04-05T00:48:16.100Z,56.71
2023-04-05T00:50:17.442Z,56.75
2023-04-05T00:52:19.711Z,57.63
2023-04-05T00:54:21.012Z,57.74
2023-04-05T00:56:22.725Z,57.93
2023-04-05T00:58:24.425Z,57.76
2023-04-05T01:00:26.388Z,57.41
2023-04-05T01:02:27.758Z,58.13
2023-04-05T01:04:30.549Z,58.09
2023-04-05T01:06:31.926Z,58.14
2023-04-05T01:08:33.256Z,58.29
2023-04-05T01:10:34.565Z,58.50
2023-04-05T01:12:36.480Z,58.31
2023-04-05T01:14:37.774Z,57.81
2023-04-05T01:16:39.076Z,57.82
2023-04-05T01:18:41.192Z,57.23
2023-04-05T01:20:43.188Z,57.04
2023-04-05T01:22:44.687Z,57.14
2023-04-05T01:24:46.834Z,56.83
2023-04-05T01:26:48.187Z,57.41
2023-04-05T01:28:50.236Z,57.66
2023-04-05T01:30:51.584Z,58.21
2023-04-05T01:32:52.943Z,59.05
2023-04-05T01:34:54.323Z,58.32
2023-04-05T01:36:55.690Z,58.63
2023-04-05T01:38:57.013Z,58.33
2023-04-05T01:40:58.325Z,58.28
2023-04-05T01:42:59.627Z,57.59
2023-04-05T01:45:01.183Z,57.97
2023-04-05T01:47:02.506Z,58.35
2023-04-05T01:49:03.851Z,57.54
2023-04-05T01:51:05.159Z,57.74
2023-04-05T01:53:06.484Z,57.66
2023-04-05T01:55:07.862Z,58.15
2023-04-05T01:57:09.181Z,58.65
2023-04-05T01:59:10.599Z,58.39
2023-04-05T02:01:12.070Z,58.45
2023-04-05T02:03:13.540Z,58.89
2023-04-05T02:05:14.951Z,58.78
2023-04-05T02:07:16.257Z,58.61
2023-04-05T02:09:17.642Z,59.01
2023-04-05T02:11:18.936Z,59.10
2023-04-05T02:13:22.185Z,59.44
2023-04-05T02:15:23.564Z,59.12
2023-04-05T02:17:24.896Z,59.11
2023-04-05T02:19:26.487Z,59.09
2023-04-05T02:21:27.815Z,59.29
2023-04-05T02:23:30.611Z,59.15
2023-04-05T02:25:31.920Z,59.34
2023-04-05T02:27:33.277Z,59.26
2023-04-05T02:29:34.905Z,59.08
2023-04-05T02:31:36.274Z,58.77
2023-04-05T02:33:37.605Z,58.49
2023-04-05T02:35:38.963Z,58.43
2023-04-05T02:37:41.696Z,58.02
2023-04-05T02:39:43.194Z,57.65
2023-04-05T02:41:44.505Z,57.46
2023-04-05T02:43:46.482Z,57.52
2023-04-05T02:45:47.836Z,57.64
2023-04-05T02:47:49.217Z,57.35
2023-04-05T02:49:50.576Z,57.32
2023-04-05T02:51:51.996Z,57.19
2023-04-05T02:53:53.324Z,56.36
2023-04-05T02:55:55.014Z,55.37
2023-04-05T02:57:58.038Z,56.07
2023-04-05T02:59:59.404Z,55.99
2023-04-05T03:02:00.796Z,56.36
2023-04-05T03:04:05.310Z,55.86
2023-04-05T03:06:15.621Z,55.62
2023-04-05T03:08:20.203Z,55.32
2023-04-05T03:10:22.491Z,55.35
2023-04-05T03:12:23.914Z,55.10
2023-04-05T03:14:25.626Z,55.31
2023-04-05T03:16:27.526Z,55.42
2023-04-05T03:18:31.903Z,55.46
2023-04-05T03:20:34.405Z,55.34
2023-04-05T03:22:36.215Z,55.49
2023-04-05T03:24:37.511Z,55.44
2023-04-05T03:26:38.923Z,55.67
2023-04-05T03:28:45.187Z,55.41
2023-04-05T03:30:46.621Z,55.34
2023-04-05T03:32:47.939Z,55.35
2023-04-05T03:34:49.270Z,55.54
2023-04-05T03:36:50.573Z,55.54
2023-04-05T03:38:52.018Z,55.35
2023-04-05T03:40:53.367Z,55.35
2023-04-05T03:42:54.680Z,55.49
2023-04-05T03:44:56.121Z,55.08
2023-04-05T03:46:57.440Z,55.31
2023-04-05T03:48:58.765Z,55.21
2023-04-05T03:51:00.050Z,55.00
2023-04-05T03:53:02.201Z,54.68
2023-04-05T03:55:03.639Z,54.97
2023-04-05T03:57:04.951Z,54.69
2023-04-05T03:59:06.659Z,54.23
2023-04-05T04:01:08.019Z,54.31
2023-04-05T04:03:09.929Z,54.02
2023-04-05T04:05:11.868Z,54.40
2023-04-05T04:07:13.207Z,54.20
2023-04-05T04:09:14.529Z,54.10
2023-04-05T04:11:15.826Z,54.60
2023-04-05T04:13:19.272Z,54.69
2023-04-05T04:15:20.870Z,54.78
2023-04-05T04:17:22.193Z,54.71
2023-04-05T04:19:23.482Z,54.64
2023-04-05T04:21:25.107Z,54.74
2023-04-05T04:23:27.364Z,54.44
2023-04-05T04:25:30.888Z,54.28
2023-04-05T04:27:32.303Z,54.56
2023-04-05T04:29:33.635Z,54.23
2023-04-05T04:31:35.152Z,54.20
2023-04-05T04:33:36.531Z,53.94
2023-04-05T04:35:40.826Z,53.83
2023-04-05T04:37:46.663Z,53.90
2023-04-05T04:39:48.835Z,53.46
2023-04-05T04:41:50.532Z,53.34
2023-04-05T04:43:55.008Z,53.10
2023-04-05T04:45:56.396Z,52.88
2023-04-05T04:47:57.812Z,52.98
2023-04-05T04:49:59.438Z,52.81
2023-04-05T04:52:00.872Z,53.13
2023-04-05T04:54:02.187Z,53.03
2023-04-05T04:56:03.590Z,52.60
2023-04-05T04:58:09.858Z,52.76
2023-04-05T05:00:15.628Z,52.81
2023-04-05T05:02:17.102Z,52.98
2023-04-05T05:04:18.526Z,52.94
2023-04-05T05:06:22.017Z,52.80
2023-04-05T05:08:23.383Z,53.20
2023-04-05T05:10:24.728Z,52.97
2023-04-05T05:12:26.834Z,53.09
2023-04-05T05:14:28.134Z,53.11
2023-04-05T05:16:29.466Z,53.29
2023-04-05T05:18:30.829Z,53.46
2023-04-05T05:20:32.492Z,53.39
2023-04-05T05:22:33.817Z,53.50
2023-04-05T05:24:35.185Z,53.46
2023-04-05T05:26:38.033Z,53.11
2023-04-05T05:28:39.603Z,53.52
2023-04-05T05:30:41.131Z,53.36
2023-04-05T05:32:43.150Z,53.71
2023-04-05T05:34:45.137Z,53.76
2023-04-05T05:36:46.829Z,53.50
2023-04-05T05:38:49.172Z,53.51
2023-04-05T05:40:50.610Z,53.45
2023-04-05T05:42:51.910Z,53.73
2023-04-05T05:44:53.243Z,53.49
2023-04-05T05:46:54.534Z,53.14
2023-04-05T05:48:55.851Z,53.01
2023-04-05T05:50:57.335Z,53.03
2023-04-05T05:53:00.340Z,53.19
2023-04-05T05:55:02.889Z,52.92
2023-04-05T05:57:04.516Z,52.53
2023-04-05T05:59:07.023Z,52.64
2023-04-05T06:01:08.826Z,52.59
2023-04-05T06:03:10.922Z,52.61
2023-04-05T06:05:12.322Z,52.07
2023-04-05T06:07:13.825Z,51.83
2023-04-05T06:09:18.067Z,51.90
2023-04-05T06:11:19.417Z,51.98
2023-04-05T06:13:20.828Z,52.33
2023-04-05T06:15:22.449Z,52.27
2023-04-05T06:17:23.865Z,52.32
2023-04-05T06:19:25.501Z,52.11
2023-04-05T06:21:27.150Z,52.15
2023-04-05T06:23:28.441Z,52.20
2023-04-05T06:25:29.757Z,52.12
2023-04-05T06:27:31.076Z,52.00
2023-04-05T06:29:32.409Z,52.27
2023-04-05T06:31:33.846Z,52.45
2023-04-05T06:33:35.465Z,52.44
2023-04-05T06:35:36.788Z,52.33
2023-04-05T06:37:38.155Z,52.51
2023-04-05T06:39:39.552Z,52.63
2023-04-05T06:41:40.873Z,52.65
2023-04-05T06:43:42.216Z,52.63
2023-04-05T06:45:43.575Z,52.62
2023-04-05T06:47:45.032Z,52.49
2023-04-05T06:49:46.364Z,52.50
2023-04-05T06:51:47.696Z,52.48
2023-04-05T06:53:49.055Z,52.61
2023-04-05T06:55:53.454Z,52.66
2023-04-05T06:57:54.783Z,52.51
2023-04-05T06:59:56.112Z,52.84
2023-04-05T07:01:57.440Z,52.35
2023-04-05T07:03:58.816Z,52.44
2023-04-05T07:06:00.269Z,52.18
2023-04-05T07:08:01.792Z,52.09
2023-04-05T07:10:03.111Z,52.32
2023-04-05T07:12:04.485Z,51.71
2023-04-05T07:14:08.586Z,51.44
2023-04-05T07:16:10.025Z,51.34
2023-04-05T07:18:11.423Z,51.43
2023-04-05T07:20:12.711Z,51.32
2023-04-05T07:22:14.048Z,51.46
2023-04-05T07:24:15.491Z,51.29
2023-04-05T07:26:16.831Z,51.06
2023-04-05T07:28:18.123Z,50.95
2023-04-05T07:30:19.455Z,51.28
2023-04-05T07:32:20.923Z,51.24
2023-04-05T07:34:23.178Z,51.19
2023-04-05T07:36:24.500Z,51.29
2023-04-05T07:38:25.808Z,51.46
2023-04-05T07:40:27.803Z,51.51
2023-04-05T07:42:29.201Z,51.85
2023-04-05T07:44:30.623Z,51.80
2023-04-05T07:46:32.013Z,51.77
2023-04-05T07:48:33.375Z,52.37
2023-04-05T07:50:34.779Z,52.27
2023-04-05T07:52:36.539Z,52.17
2023-04-05T07:54:43.386Z,52.19
2023-04-05T07:56:44.723Z,52.08
2023-04-05T07:58:46.128Z,52.03
2023-04-05T08:00:47.475Z,52.14
2023-04-05T08:02:48.842Z,51.83
2023-04-05T08:04:50.465Z,51.74
2023-04-05T08:06:51.833Z,51.64
2023-04-05T08:08:53.130Z,52.18
2023-04-05T08:10:54.740Z,52.11
2023-04-05T08:12:56.088Z,51.99
2023-04-05T08:14:57.438Z,52.17
2023-04-05T08:16:58.729Z,51.73
2023-04-05T08:19:00.041Z,51.71
2023-04-05T08:21:02.269Z,51.53
2023-04-05T08:23:03.608Z,51.45
2023-04-05T08:25:04.932Z,51.56
2023-04-05T08:27:06.489Z,51.51
2023-04-05T08:29:08.110Z,51.79
2023-04-05T08:31:10.469Z,51.39
2023-04-05T08:33:13.287Z,51.18
2023-04-05T08:35:14.706Z,51.43
2023-04-05T08:37:16.021Z,51.28
2023-04-05T08:39:17.407Z,51.28
2023-04-05T08:41:18.767Z,51.15
2023-04-05T08:43:20.573Z,51.17
2023-04-05T08:45:22.003Z,51.11
2023-04-05T08:47:23.320Z,51.22
2023-04-05T08:49:24.664Z,51.38
2023-04-05T08:51:28.863Z,51.52
2023-04-05T08:53:30.813Z,51.19
2023-04-05T08:55:32.201Z,51.32
2023-04-05T08:57:33.632Z,51.39
2023-04-05T08:59:35.713Z,51.32
2023-04-05T09:01:37.199Z,51.86
2023-04-05T09:03:38.717Z,51.64
2023-04-05T09:05:40.092Z,51.66
2023-04-05T09:07:41.428Z,51.58
2023-04-05T09:09:42.719Z,51.95
2023-04-05T09:11:44.076Z,51.79
2023-04-05T09:13:45.385Z,51.67
2023-04-05T09:15:47.188Z,51.76
2023-04-05T09:17:48.549Z,52.15
2023-04-05T09:19:50.471Z,52.18
2023-04-05T09:21:51.812Z,52.23
2023-04-05T09:23:54.055Z,52.01
2023-04-05T09:25:55.388Z,52.05
2023-04-05T09:27:56.840Z,51.61
2023-04-05T09:29:58.188Z,51.96
2023-04-05T09:31:59.479Z,51.71
2023-04-05T09:34:01.593Z,51.60
2023-04-05T09:36:02.956Z,51.60
2023-04-05T09:38:05.180Z,51.47
2023-04-05T09:40:07.091Z,51.34
2023-04-05T09:42:08.514Z,51.64
2023-04-05T09:44:09.825Z,51.22
2023-04-05T09:46:11.211Z,51.02
2023-04-05T09:48:13.728Z,51.46
2023-04-05T09:50:15.147Z,51.14
2023-04-05T09:52:16.504Z,50.96
2023-04-05T09:54:17.827Z,51.27
2023-04-05T09:56:19.170Z,51.33
2023-04-05T09:58:21.332Z,51.30
2023-04-05T10:00:22.769Z,50.97
2023-04-05T10:02:24.315Z,51.19
2023-04-05T10:04:25.783Z,50.77
2023-04-05T10:06:27.967Z,50.79
2023-04-05T10:08:29.308Z,50.92
2023-04-05T10:10:30.638Z,51.19
2023-04-05T10:12:31.992Z,50.84
2023-04-05T10:14:34.536Z,51.12
2023-04-05T10:16:36.041Z,50.79
2023-04-05T10:18:39.746Z,50.94
2023-04-05T10:20:42.115Z,51.17
2023-04-05T10:22:43.648Z,51.10
2023-04-05T10:24:44.963Z,51.05
2023-04-05T10:26:46.827Z,51.12
2023-04-05T10:28:48.184Z,51.16
2023-04-05T10:30:49.639Z,51.19
2023-04-05T10:32:51.056Z,51.57
2023-04-05T10:34:52.471Z,51.49
2023-04-05T10:36:53.887Z,51.95
2023-04-05T10:38:55.261Z,51.90
2023-04-05T10:40:56.611Z,51.82
2023-04-05T10:42:58.024Z,51.90
2023-04-05T10:45:00.441Z,51.87
2023-04-05T10:47:01.953Z,51.77
2023-04-05T10:49:03.851Z,52.05
2023-04-05T10:51:05.544Z,52.13
2023-04-05T10:53:06.845Z,51.81
2023-04-05T10:55:08.209Z,52.12
2023-04-05T10:57:10.490Z,52.01
2023-04-05T10:59:12.273Z,51.69
2023-04-05T11:01:13.853Z,51.83
2023-04-05T11:03:15.549Z,51.87
2023-04-05T11:05:16.942Z,51.70
2023-04-05T11:07:18.289Z,51.34
2023-04-05T11:09:20.436Z,51.34
2023-04-05T11:11:21.739Z,50.88
2023-04-05T11:13:23.067Z,51.04
2023-04-05T11:15:30.556Z,50.85
2023-04-05T11:17:32.078Z,50.58
2023-04-05T11:19:33.444Z,50.63
2023-04-05T11:21:38.220Z,50.39
2023-04-05T11:23:39.544Z,50.17
2023-04-05T11:25:41.439Z,50.39
2023-04-05T11:27:42.789Z,50.48
2023-04-05T11:29:44.143Z,50.16
2023-04-05T11:31:45.484Z,50.66
2023-04-05T11:33:55.198Z,50.17
2023-04-05T11:35:57.463Z,50.40
2023-04-05T11:37:58.901Z,50.60
2023-04-05T11:40:00.329Z,50.66
2023-04-05T11:42:04.554Z,50.48
2023-04-05T11:44:05.915Z,50.66
2023-04-05T11:46:07.325Z,50.58
2023-04-05T11:48:08.812Z,51.04
2023-04-05T11:50:10.234Z,50.73
2023-04-05T11:52:11.988Z,50.84
2023-04-05T11:54:13.283Z,51.43
2023-04-05T11:56:16.100Z,51.08
2023-04-05T11:58:17.522Z,51.12
2023-04-05T12:00:18.849Z,51.60
2023-04-05T12:02:20.283Z,51.58
2023-04-05T12:04:21.611Z,51.32
2023-04-05T12:06:22.975Z,51.48
2023-04-05T12:08:24.274Z,51.71
2023-04-05T12:10:25.779Z,51.63
2023-04-05T12:12:27.141Z,51.35
2023-04-05T12:14:31.340Z,51.31
2023-04-05T12:16:32.656Z,51.09
2023-04-05T12:18:34.033Z,51.30
2023-04-05T12:20:35.378Z,51.05
2023-04-05T12:22:36.678Z,51.62
2023-04-05T12:24:38.296Z,51.11
2023-04-05T12:26:40.473Z,50.99
2023-04-05T12:28:41.949Z,50.85
2023-04-05T12:30:45.997Z,50.68
2023-04-05T12:32:47.888Z,50.81
2023-04-05T12:34:49.287Z,50.92
2023-04-05T12:36:50.577Z,50.48
2023-04-05T12:38:51.878Z,50.15
2023-04-05T12:40:53.919Z,49.87
2023-04-05T12:42:55.227Z,49.74
2023-04-05T12:44:56.520Z,49.81
2023-04-05T12:46:57.836Z,49.59
2023-04-05T12:48:59.131Z,49.40
2023-04-05T12:51:00.466Z,48.84
2023-04-05T12:53:02.362Z,48.42
2023-04-05T12:55:03.663Z,48.95
2023-04-05T12:57:08.758Z,49.09
2023-04-05T12:59:10.267Z,48.24
2023-04-05T13:01:12.948Z,49.50
2023-04-05T13:03:14.477Z,49.44
2023-04-05T13:05:16.182Z,50.22
2023-04-05T13:07:17.608Z,50.03
2023-04-05T13:09:18.903Z,48.93
2023-04-05T13:11:20.341Z,49.89
2023-04-05T13:13:21.704Z,50.17
2023-04-05T13:15:23.051Z,50.63
2023-04-05T13:17:24.458Z,51.62
2023-04-05T13:19:26.023Z,51.31
2023-04-05T13:21:27.336Z,51.47
2023-04-05T13:23:28.678Z,51.74
2023-04-05T13:25:29.989Z,51.29
2023-04-05T13:27:31.348Z,51.41
2023-04-05T13:29:32.633Z,51.48
2023-04-05T13:31:34.109Z,51.21
2023-04-05T13:33:35.682Z,50.95
2023-04-05T13:35:37.160Z,50.76
2023-04-05T13:37:38.487Z,50.61
2023-04-05T13:39:39.779Z,50.27
2023-04-05T13:41:41.087Z,50.40
2023-04-05T13:43:42.384Z,50.34
2023-04-05T13:45:46.660Z,50.85
2023-04-05T13:47:48.037Z,50.53
2023-04-05T13:49:49.900Z,50.88
2023-04-05T13:51:51.227Z,50.85
2023-04-05T13:53:52.528Z,50.96
2023-04-05T13:55:53.823Z,51.17
2023-04-05T13:57:55.148Z,50.97
2023-04-05T13:59:56.540Z,50.79
2023-04-05T14:01:57.956Z,50.99
2023-04-05T14:03:59.436Z,50.74
2023-04-05T14:06:00.831Z,50.82
2023-04-05T14:08:02.198Z,51.13
2023-04-05T14:10:06.266Z,51.10
2023-04-05T14:12:08.594Z,51.11
2023-04-05T14:14:10.007Z,51.25
2023-04-05T14:16:11.494Z,50.93
2023-04-05T14:18:15.819Z,51.43
2023-04-05T14:20:17.219Z,51.22
2023-04-05T14:22:18.522Z,50.88
2023-04-05T14:24:19.956Z,51.45
2023-04-05T14:26:24.268Z,51.42
2023-04-05T14:28:25.748Z,51.54
2023-04-05T14:30:27.086Z,52.37
2023-04-05T14:32:29.028Z,52.45
2023-04-05T14:34:31.686Z,52.52
2023-04-05T14:36:33.417Z,52.17
2023-04-05T14:38:34.736Z,52.08
2023-04-05T14:40:36.138Z,52.46
2023-04-05T14:42:48.642Z,52.54
2023-04-05T14:44:51.363Z,39.01
2023-04-05T14:46:52.778Z,37.71
2023-04-05T14:48:54.100Z,43.81
2023-04-05T14:50:55.419Z,43.72
2023-04-05T14:52:57.804Z,44.48
2023-04-05T14:54:59.121Z,45.49
2023-04-05T14:57:00.587Z,46.01
2023-04-05T14:59:02.664Z,46.68
2023-04-05T15:01:04.640Z,47.21
2023-04-05T15:03:06.130Z,47.68
2023-04-05T15:05:07.550Z,48.41
2023-04-05T15:07:08.896Z,48.14
2023-04-05T15:09:10.247Z,48.30
2023-04-05T15:11:11.593Z,48.27
2023-04-05T15:13:12.967Z,48.64
2023-04-05T15:15:14.386Z,48.82
2023-04-05T15:17:15.852Z,48.87
2023-04-05T15:19:17.557Z,49.09
2023-04-05T15:21:20.056Z,48.81
2023-04-05T15:23:21.565Z,49.37
2023-04-05T15:25:22.984Z,49.39
2023-04-05T15:27:24.310Z,49.16
2023-04-05T15:29:25.804Z,49.61
2023-04-05T15:31:27.176Z,49.47
2023-04-05T15:33:31.430Z,49.89
2023-04-05T15:35:41.905Z,49.97
2023-04-05T15:37:43.343Z,50.04
2023-04-05T15:39:44.673Z,50.65
2023-04-05T15:41:46.672Z,50.43
2023-04-05T15:43:47.974Z,50.73
2023-04-05T15:45:49.392Z,50.79
2023-04-05T15:47:51.060Z,50.82
2023-04-05T15:49:52.373Z,51.19
2023-04-05T15:51:53.682Z,51.59
2023-04-05T15:53:55.013Z,51.29
2023-04-05T15:55:58.376Z,51.88
2023-04-05T15:57:59.822Z,51.65
2023-04-05T16:00:02.205Z,51.78
2023-04-05T16:02:03.581Z,52.30
2023-04-05T16:04:11.569Z,52.31
2023-04-05T16:06:12.937Z,52.07
2023-04-05T16:08:17.418Z,50.92
2023-04-05T16:10:18.776Z,50.28
2023-04-05T16:12:20.234Z,50.15
2023-04-05T16:14:21.564Z,50.05
2023-04-05T16:16:32.553Z,50.01
2023-04-05T16:18:43.173Z,51.10
2023-04-05T16:20:44.478Z,51.63
2023-04-05T16:22:46.148Z,51.26
2023-04-05T16:24:48.103Z,51.63
2023-04-05T16:26:49.424Z,51.29
2023-04-05T16:28:50.723Z,50.95
2023-04-05T16:30:52.160Z,51.32
2023-04-05T16:32:56.478Z,51.28
2023-04-05T16:35:00.811Z,50.43
2023-04-05T16:37:02.211Z,50.00
2023-04-05T16:39:07.577Z,50.63
2023-04-05T16:41:08.890Z,49.79
2023-04-05T16:43:10.367Z,50.38
2023-04-05T16:45:11.694Z,51.38
2023-04-05T16:47:13.063Z,51.13
2023-04-05T16:49:15.879Z,50.81
2023-04-05T16:51:17.335Z,50.00
2023-04-05T16:53:18.659Z,49.57
2023-04-05T16:55:20.027Z,50.36
2023-04-05T16:57:24.274Z,50.49
2023-04-05T16:59:28.473Z,50.52
2023-04-05T17:01:30.498Z,50.59
2023-04-05T17:03:31.916Z,51.06
2023-04-05T17:05:33.292Z,50.92
2023-04-05T17:07:34.686Z,51.72
2023-04-05T17:09:36.007Z,50.12
2023-04-05T17:11:37.779Z,50.54
2023-04-05T17:13:39.179Z,49.53
2023-04-05T17:15:40.565Z,50.26
2023-04-05T17:17:42.046Z,50.19
2023-04-05T17:19:43.687Z,50.66
2023-04-05T17:21:48.736Z,50.36
2023-04-05T17:23:50.174Z,50.72
2023-04-05T17:25:54.551Z,50.81
2023-04-05T17:27:58.856Z,51.22
2023-04-05T17:30:02.217Z,51.28
2023-04-05T17:32:03.577Z,51.40
2023-04-05T17:34:05.112Z,51.54
2023-04-05T17:36:06.480Z,51.45
2023-04-05T17:38:10.799Z,51.09
2023-04-05T17:40:12.135Z,51.47
2023-04-05T17:42:13.551Z,51.63
2023-04-05T17:44:14.877Z,52.03
2023-04-05T17:46:20.095Z,51.77
2023-04-05T17:48:25.983Z,52.12
2023-04-05T17:50:27.555Z,52.20
2023-04-05T17:52:28.913Z,52.25
2023-04-05T17:54:31.661Z,52.32
2023-04-05T17:56:32.972Z,52.27
2023-04-05T17:58:34.359Z,52.28
2023-04-05T18:00:35.867Z,52.14
2023-04-05T18:02:37.949Z,52.06
2023-04-05T18:04:39.522Z,52.15
2023-04-05T18:06:43.689Z,51.66
2023-04-05T18:08:45.426Z,51.60
2023-04-05T18:10:46.851Z,51.22
2023-04-05T18:12:50.811Z,50.95
2023-04-05T18:14:52.140Z,51.20
2023-04-05T18:16:53.534Z,50.64
2023-04-05T18:18:54.919Z,50.75
2023-04-05T18:20:56.438Z,50.28
2023-04-05T18:22:57.855Z,50.14
2023-04-05T18:24:59.850Z,50.20
2023-04-05T18:27:01.290Z,50.22
2023-04-05T18:29:02.636Z,50.35
2023-04-05T18:31:04.027Z,51.08
2023-04-05T18:33:08.083Z,50.56
2023-04-05T18:35:10.043Z,49.08
2023-04-05T18:37:14.339Z,49.51
2023-04-05T18:39:16.717Z,49.43
2023-04-05T18:41:18.039Z,49.60
2023-04-05T18:43:19.349Z,48.96
2023-04-05T18:45:21.865Z,49.75
2023-04-05T18:47:23.168Z,49.17
2023-04-05T18:49:24.496Z,48.80
2023-04-05T18:51:27.235Z,49.21
2023-04-05T18:53:28.591Z,49.43
2023-04-05T18:55:29.905Z,49.12
2023-04-05T18:57:31.224Z,48.78
2023-04-05T18:59:32.718Z,48.85
2023-04-05T19:01:34.146Z,49.00
2023-04-05T19:03:35.553Z,49.05
2023-04-05T19:05:36.881Z,49.14
2023-04-05T19:07:38.303Z,48.57
2023-04-05T19:09:39.618Z,49.14
2023-04-05T19:11:40.974Z,49.43
2023-04-05T19:13:42.315Z,49.85
2023-04-05T19:15:43.722Z,50.16
2023-04-05T19:17:45.383Z,49.59
2023-04-05T19:19:48.591Z,49.78
2023-04-05T19:21:49.914Z,49.24
2023-04-05T19:23:51.304Z,48.89
2023-04-05T19:25:59.182Z,48.67
2023-04-05T19:28:00.580Z,48.84
2023-04-05T19:30:01.920Z,49.55
2023-04-05T19:32:03.274Z,48.77
2023-04-05T19:34:04.588Z,48.82
2023-04-05T19:36:06.320Z,49.57
2023-04-05T19:38:07.842Z,50.59
2023-04-05T19:40:09.295Z,51.04
2023-04-05T19:42:10.715Z,51.81
2023-04-05T19:44:14.843Z,50.97
2023-04-05T19:46:21.916Z,50.60
2023-04-05T19:48:23.304Z,50.47
2023-04-05T19:50:26.736Z,50.25
2023-04-05T19:52:28.048Z,50.66
2023-04-05T19:54:29.487Z,50.67
2023-04-05T19:56:32.422Z,50.31
2023-04-05T19:58:34.233Z,50.51
2023-04-05T20:00:38.397Z,50.45
2023-04-05T20:02:39.730Z,50.39
2023-04-05T20:04:41.317Z,50.41
2023-04-05T20:06:42.769Z,49.65
2023-04-05T20:08:44.130Z,49.50
2023-04-05T20:10:52.088Z,49.75
2023-04-05T20:12:53.479Z,50.19
2023-04-05T20:14:55.667Z,49.98
2023-04-05T20:16:57.158Z,49.93
2023-04-05T20:18:58.560Z,50.03
2023-04-05T20:20:59.909Z,50.09
2023-04-05T20:23:02.227Z,49.76
2023-04-05T20:25:03.551Z,50.17
2023-04-05T20:27:05.484Z,50.04
2023-04-05T20:29:07.295Z,50.56
2023-04-05T20:31:08.925Z,50.25
2023-04-05T20:33:10.552Z,50.58
2023-04-05T20:35:14.823Z,50.69
2023-04-05T20:37:16.128Z,50.88
2023-04-05T20:39:17.532Z,51.02
2023-04-05T20:41:18.889Z,51.34
2023-04-05T20:43:20.485Z,51.17
2023-04-05T20:45:22.333Z,41.60
2023-04-05T20:47:23.684Z,37.25
2023-04-05T20:49:25.056Z,42.58
2023-04-05T20:51:26.745Z,44.71
2023-04-05T20:53:31.255Z,44.64
2023-04-05T20:55:32.562Z,44.79
2023-04-05T20:57:34.400Z,45.20
2023-04-05T20:59:36.036Z,45.74
2023-04-05T21:01:38.241Z,45.82
2023-04-05T21:03:39.712Z,46.02
2023-04-05T21:05:41.247Z,46.38
2023-04-05T21:07:42.896Z,46.62
2023-04-05T21:09:44.252Z,46.23
2023-04-05T21:11:45.754Z,46.65
2023-04-05T21:13:47.070Z,46.56
2023-04-05T21:15:48.414Z,47.16
2023-04-05T21:17:49.799Z,47.08
2023-04-05T21:19:51.498Z,47.21
2023-04-05T21:21:52.936Z,47.65
2023-04-05T21:23:54.269Z,47.11
2023-04-05T21:25:55.643Z,47.57
2023-04-05T21:27:56.974Z,47.34
2023-04-05T21:29:58.319Z,47.32
2023-04-05T21:31:59.658Z,47.81
2023-04-05T21:34:01.003Z,47.67
2023-04-05T21:36:02.362Z,47.99
2023-04-05T21:38:03.759Z,48.41
2023-04-05T21:40:05.267Z,48.79
2023-04-05T21:42:06.651Z,48.87
2023-04-05T21:44:08.015Z,48.33
2023-04-05T21:46:09.366Z,48.29
2023-04-05T21:48:10.947Z,48.37
2023-04-05T21:50:12.324Z,48.67
2023-04-05T21:52:13.748Z,49.20
2023-04-05T21:54:15.295Z,49.43
2023-04-05T21:56:16.638Z,49.08
2023-04-05T21:58:18.001Z,49.61
2023-04-05T22:00:19.855Z,49.76
2023-04-05T22:02:21.264Z,50.03
2023-04-05T22:04:24.183Z,50.34
2023-04-05T22:06:27.291Z,50.64
2023-04-05T22:08:28.978Z,50.82
2023-04-05T22:10:30.429Z,50.91
2023-04-05T22:12:31.818Z,50.72
2023-04-05T22:14:33.148Z,51.06
2023-04-05T22:16:34.554Z,51.44
2023-04-05T22:18:36.592Z,51.41
2023-04-05T22:20:37.936Z,51.83
2023-04-05T22:22:39.280Z,51.74
2023-04-05T22:24:40.604Z,51.51
2023-04-05T22:26:41.973Z,51.51
2023-04-05T22:28:43.336Z,51.89
2023-04-05T22:30:44.692Z,52.13
2023-04-05T22:32:46.809Z,51.73
2023-04-05T22:34:48.728Z,51.89
2023-04-05T22:36:50.028Z,52.06
2023-04-05T22:38:53.570Z,52.35
2023-04-05T22:40:55.539Z,52.09
2023-04-05T22:42:56.935Z,51.65
2023-04-05T22:44:58.300Z,51.27
2023-04-05T22:46:59.602Z,51.59
2023-04-05T22:49:01.341Z,50.86
2023-04-05T22:51:02.830Z,50.57
2023-04-05T22:53:04.165Z,50.57
2023-04-05T22:55:05.668Z,51.05
2023-04-05T22:57:11.194Z,50.91
2023-04-05T22:59:13.026Z,50.88
2023-04-05T23:01:14.379Z,50.59
2023-04-05T23:03:15.759Z,50.61
2023-04-05T23:05:17.114Z,51.04
2023-04-05T23:07:18.427Z,51.05
2023-04-05T23:09:19.743Z,50.73
2023-04-05T23:11:21.572Z,51.33
2023-04-05T23:13:22.919Z,51.61
2023-04-05T23:15:24.307Z,51.45
2023-04-05T23:17:25.654Z,51.85
2023-04-05T23:19:27.231Z,52.17
2023-04-05T23:21:28.580Z,51.73
2023-04-05T23:23:29.943Z,52.24
2023-04-05T23:25:31.332Z,52.55
2023-04-05T23:27:32.640Z,52.81
2023-04-05T23:29:33.948Z,52.96
2023-04-05T23:31:35.349Z,53.25
2023-04-05T23:33:36.790Z,54.08
2023-04-05T23:35:38.166Z,54.56
2023-04-05T23:37:39.546Z,54.39
2023-04-05T23:39:41.036Z,54.47
2023-04-05T23:41:42.359Z,55.03
2023-04-05T23:43:43.708Z,55.00
2023-04-05T23:45:45.420Z,55.75
2023-04-05T23:47:46.814Z,55.57
2023-04-05T23:49:48.146Z,55.71
2023-04-05T23:51:49.556Z,55.78
2023-04-05T23:53:51.639Z,56.29
2023-04-05T23:55:55.714Z,56.14
2023-04-05T23:57:57.906Z,56.24
2023-04-05T23:59:59.256Z,56.61
